Time;durP1;ratioP1;P1;durP2;ratioP2;P2;SDS_P1;SDS_P2;PMS_P1;PMS_P2;Temp;Humidity;BMP_temperature;BMP_pressure;BME280_temperature;BME280_humidity;BME280_pressure;Samples;Min_cycle;Max_cycle;Signal;HPM_P1;HPM_P2
2022/07/14 00:01:14;;;;;;;2.03;1.02;;;;;;;23.76;49.19;100819.75;2114522;28;20059;-73
2022/07/14 00:02:35;;;;;;;6.22;1.35;;;;;;;23.75;49.22;100822.53;2106070;28;20040;-74
2022/07/14 00:03:58;;;;;;;2.75;1.25;;;;;;;23.76;49.33;100821.59;2103337;28;20044;-72
2022/07/14 00:05:19;;;;;;;4.22;1.40;;;;;;;23.76;49.24;100819.75;2106044;28;20048;-73
2022/07/14 00:06:42;;;;;;;5.70;1.65;;;;;;;23.78;49.19;100817.88;2103328;28;20799;-73
2022/07/14 00:08:04;;;;;;;6.93;1.70;;;;;;;23.78;49.12;100817.88;2094743;28;20051;-73
2022/07/14 00:09:26;;;;;;;5.40;1.55;;;;;;;23.80;49.06;100821.41;2109246;28;20483;-73
2022/07/14 00:10:49;;;;;;;3.22;1.27;;;;;;;23.79;49.30;100830.44;2106075;28;20064;-73
2022/07/14 00:12:11;;;;;;;3.20;1.42;;;;;;;23.80;49.31;100824.09;2103219;28;20459;-74
2022/07/14 00:13:32;;;;;;;6.05;1.38;;;;;;;23.82;49.12;100826.75;2106088;28;20079;-73
2022/07/14 00:14:55;;;;;;;3.15;1.27;;;;;;;23.83;49.25;100825.78;2103292;28;20044;-74
2022/07/14 00:16:19;;;;;;;6.45;1.40;;;;;;;23.83;49.27;100809.59;2105743;28;20473;-73
2022/07/14 00:17:42;;;;;;;4.93;1.55;;;;;;;23.81;49.34;100819.59;2103571;28;20052;-73
2022/07/14 00:19:04;;;;;;;3.28;1.30;;;;;;;23.81;49.29;100827.69;2111670;28;20089;-73
2022/07/14 00:20:26;;;;;;;4.60;1.60;;;;;;;23.79;49.36;100816.94;2105686;28;20082;-74
2022/07/14 00:21:48;;;;;;;9.00;1.75;;;;;;;23.77;49.38;100818.81;2106078;28;20135;-73
2022/07/14 00:23:11;;;;;;;2.72;1.45;;;;;;;23.76;49.73;100819.75;2102977;28;20097;-73
2022/07/14 00:24:32;;;;;;;8.18;2.38;;;;;;;23.76;49.63;100818.91;2105734;28;20040;-73
2022/07/14 00:25:55;;;;;;;1.92;1.40;;;;;;;23.76;49.74;100817.06;2103151;28;20058;-74
2022/07/14 00:27:16;;;;;;;4.60;1.50;;;;;;;23.77;49.77;100826.03;2103256;28;20382;-73
2022/07/14 00:28:39;;;;;;;4.88;1.70;;;;;;;23.76;49.76;100814.34;2102778;28;20363;-73
2022/07/14 00:30:00;;;;;;;10.07;1.73;;;;;;;23.75;49.83;100812.63;2111885;28;20040;-73
2022/07/14 00:31:24;;;;;;;5.53;1.83;;;;;;;23.76;50.03;100817.06;2097596;28;20151;-73
2022/07/14 00:32:46;;;;;;;4.47;1.58;;;;;;;23.75;50.04;100815.31;2100690;28;20048;-73
2022/07/14 00:34:11;;;;;;;5.28;1.60;;;;;;;23.75;50.03;100814.44;2103630;28;20131;-73
2022/07/14 00:35:34;;;;;;;4.13;1.52;;;;;;;23.71;50.14;100816.34;2103142;28;20102;-73
2022/07/14 00:36:56;;;;;;;5.70;1.20;;;;;;;23.69;50.24;100812.84;2100960;28;20059;-73
2022/07/14 00:38:19;;;;;;;5.78;1.50;;;;;;;23.70;50.44;100813.69;2100501;28;20379;-73
2022/07/14 00:39:55;;;;;;;5.95;1.77;;;;;;;23.70;50.33;100801.09;2100672;28;20056;-74
2022/07/14 00:41:17;;;;;;;7.85;1.73;;;;;;;23.71;50.34;100794.78;2105100;28;20094;-73
2022/07/14 00:42:40;;;;;;;5.63;1.70;;;;;;;23.71;50.62;100797.47;2100309;28;20073;-73
2022/07/14 00:44:03;;;;;;;4.35;1.50;;;;;;;23.71;50.64;100802.00;2101074;28;20478;-73
2022/07/14 00:45:26;;;;;;;2.45;1.50;;;;;;;23.70;50.74;100798.41;2103088;28;20052;-73
2022/07/14 00:46:50;;;;;;;9.32;2.00;;;;;;;23.70;50.79;100787.63;2108784;28;20485;-73
2022/07/14 00:48:13;;;;;;;6.88;2.00;;;;;;;23.71;50.92;100796.59;2101429;28;20080;-74
2022/07/14 00:49:34;;;;;;;7.05;2.03;;;;;;;23.70;51.02;100798.41;2102677;28;20067;-72
2022/07/14 00:50:57;;;;;;;6.63;1.67;;;;;;;23.68;51.27;100786.81;2103112;28;20048;-73
2022/07/14 00:52:18;;;;;;;5.38;1.52;;;;;;;23.67;51.59;100800.34;2103031;28;20043;-73
2022/07/14 00:53:41;;;;;;;5.57;1.52;;;;;;;23.66;51.53;100799.47;2094643;28;20084;-73
2022/07/14 00:55:05;;;;;;;4.93;1.80;;;;;;;23.65;51.89;100791.44;2092118;28;20087;-73
2022/07/14 00:56:27;;;;;;;8.95;1.73;;;;;;;23.62;51.92;100791.56;2100610;28;20074;-73
2022/07/14 00:57:50;;;;;;;8.85;2.08;;;;;;;23.60;52.01;100794.31;2111357;28;20082;-73
2022/07/14 00:59:11;;;;;;;5.32;1.63;;;;;;;23.59;52.19;100781.78;2097395;28;20110;-73
2022/07/14 01:00:34;;;;;;;9.15;2.22;;;;;;;23.59;52.17;100786.28;2108511;28;20173;-73
2022/07/14 01:01:57;;;;;;;5.43;2.17;;;;;;;23.59;52.17;100787.16;2105706;28;20036;-73
2022/07/14 01:03:19;;;;;;;5.80;1.58;;;;;;;23.58;52.28;100785.41;2102621;28;20704;-73
2022/07/14 01:04:41;;;;;;;10.48;2.15;;;;;;;23.55;52.25;100785.53;2097267;28;20152;-73
2022/07/14 01:06:03;;;;;;;10.15;1.75;;;;;;;23.56;52.30;100790.00;2100027;28;20050;-73
2022/07/14 01:07:25;;;;;;;2.38;1.63;;;;;;;23.57;52.35;100788.16;2102886;28;20549;-73
2022/07/14 01:08:48;;;;;;;7.50;3.13;;;;;;;23.58;52.43;100787.22;2102812;28;20432;-73
2022/07/14 01:10:11;;;;;;;11.02;2.08;;;;;;;23.57;52.46;100778.25;2102621;28;20040;-73
2022/07/14 01:11:32;;;;;;;6.38;1.80;;;;;;;23.57;52.45;100785.44;2105645;28;20576;-73
2022/07/14 01:13:00;;;;;;;8.10;2.20;;;;;;;23.57;52.45;100771.97;2105284;28;20054;-73
2022/07/14 01:14:21;;;;;;;5.93;2.05;;;;;;;23.57;52.52;100769.28;2094313;28;20048;-73
2022/07/14 01:15:44;;;;;;;6.57;1.60;;;;;;;23.57;52.49;100774.66;2100160;28;20052;-73
2022/07/14 01:17:08;;;;;;;11.75;3.13;;;;;;;23.58;52.68;100763.84;2102413;28;20040;-74
2022/07/14 01:18:30;;;;;;;8.43;2.05;;;;;;;23.58;52.90;100765.66;2094613;28;20052;-73
2022/07/14 01:19:52;;;;;;;7.97;1.83;;;;;;;23.55;53.27;100771.19;2094585;28;20609;-74
2022/07/14 01:21:16;;;;;;;7.20;1.98;;;;;;;23.54;53.22;100770.28;2091592;28;20098;-73
2022/07/14 01:22:37;;;;;;;3.42;1.52;;;;;;;23.52;53.18;100768.56;2094715;28;20082;-73
2022/07/14 01:24:00;;;;;;;8.43;2.08;;;;;;;23.51;53.01;100775.78;2108194;28;20201;-73
2022/07/14 01:25:23;;;;;;;6.47;1.80;;;;;;;23.50;53.01;100775.88;2105088;28;20109;-73
2022/07/14 01:26:44;;;;;;;5.85;2.33;;;;;;;23.47;53.27;100763.38;2094418;28;20055;-73
2022/07/14 01:28:07;;;;;;;9.38;2.17;;;;;;;23.46;53.35;100764.28;2100078;28;20142;-73
2022/07/14 01:29:29;;;;;;;6.50;1.98;;;;;;;23.48;53.45;100769.66;2094239;28;20044;-73
2022/07/14 01:30:51;;;;;;;9.13;2.60;;;;;;;23.46;53.63;100764.28;2091966;28;20071;-74
2022/07/14 01:32:14;;;;;;;5.82;2.33;;;;;;;23.45;53.63;100770.59;2100417;28;20056;-73
2022/07/14 01:33:35;;;;;;;7.60;1.85;;;;;;;23.44;53.62;100767.00;2105197;28;20486;-73
2022/07/14 01:34:59;;;;;;;9.73;2.03;;;;;;;23.44;53.67;100763.44;2102787;28;20078;-74
2022/07/14 01:36:22;;;;;;;6.60;2.00;;;;;;;23.42;53.67;100763.53;2094771;28;20383;-73
2022/07/14 01:37:48;;;;;;;6.45;2.33;;;;;;;23.40;53.71;100767.19;2099863;28;20508;-74
2022/07/14 01:39:09;;;;;;;5.35;1.75;;;;;;;23.39;53.77;100769.00;2103197;28;20064;-73
2022/07/14 01:40:31;;;;;;;8.30;2.20;;;;;;;23.38;53.71;100760.97;2102794;28;20101;-73
2022/07/14 01:41:53;;;;;;;9.55;2.05;;;;;;;23.38;53.68;100755.59;2102344;28;20420;-73
2022/07/14 01:43:16;;;;;;;4.28;1.98;;;;;;;23.35;54.06;100756.59;2096978;28;20056;-74
2022/07/14 01:44:38;;;;;;;7.32;1.92;;;;;;;23.33;53.74;100758.47;2108680;28;20039;-73
2022/07/14 01:46:00;;;;;;;6.40;1.95;;;;;;;23.34;53.70;100753.94;2096603;28;20055;-74
2022/07/14 01:47:25;;;;;;;6.25;1.90;;;;;;;23.33;53.83;100757.56;2095680;28;20519;-73
2022/07/14 01:48:48;;;;;;;8.10;2.28;;;;;;;23.31;53.93;100760.31;2100453;28;20059;-73
2022/07/14 01:50:11;;;;;;;7.45;1.88;;;;;;;23.29;53.86;100748.75;2100211;28;20054;-74
2022/07/14 01:51:38;;;;;;;4.75;2.10;;;;;;;23.30;53.98;100753.16;2102918;28;20059;-73
2022/07/14 01:53:00;;;;;;;9.55;2.08;;;;;;;23.30;53.87;100757.72;2094271;28;20036;-73
2022/07/14 01:54:25;;;;;;;7.50;2.00;;;;;;;23.30;53.85;100749.63;2100089;28;20052;-73
2022/07/14 01:55:48;;;;;;;6.57;2.17;;;;;;;23.30;53.98;100750.47;2105289;28;20043;-73
2022/07/14 01:57:09;;;;;;;5.60;2.15;;;;;;;23.29;53.88;100748.75;2094386;28;20048;-73
2022/07/14 01:58:32;;;;;;;5.63;1.98;;;;;;;23.30;54.06;100752.31;2093991;28;20079;-74
2022/07/14 01:59:55;;;;;;;5.30;1.70;;;;;;;23.30;54.00;100752.31;2091328;28;20048;-74
2022/07/14 02:02:57;;;;;;;5.13;1.60;;;;;;;23.30;54.05;100752.31;2096646;28;20041;-73
2022/07/14 02:04:21;;;;;;;8.50;2.28;;;;;;;23.32;53.84;100753.13;2092309;28;20054;-73
2022/07/14 02:05:46;;;;;;;11.60;2.63;;;;;;;23.31;54.06;100754.94;2094188;28;20139;-73
2022/07/14 02:07:10;;;;;;;4.95;2.00;;;;;;;23.31;54.15;100748.66;2092308;28;20554;-73
2022/07/14 02:08:39;;;;;;;7.30;2.20;;;;;;;23.32;53.96;100751.31;2103123;28;20100;-73
2022/07/14 02:13:27;;;;;;;10.60;2.20;;;;;;;23.30;54.04;100746.94;2104400;28;20131;-73
2022/07/14 02:14:49;;;;;;;7.50;1.90;;;;;;;23.30;53.90;100747.78;2096794;28;20049;-73
2022/07/14 02:16:12;;;;;;;7.13;2.17;;;;;;;23.29;53.98;100751.44;2099697;28;20614;-72
2022/07/14 02:17:34;;;;;;;6.88;2.22;;;;;;;23.28;54.01;100757.75;2102102;28;20061;-73
2022/07/14 02:18:56;;;;;;;11.50;2.03;;;;;;;23.28;54.17;100746.09;2094204;28;20055;-73
2022/07/14 02:20:22;;;;;;;7.80;2.00;;;;;;;23.28;54.08;100756.88;2102508;28;20047;-73
2022/07/14 02:21:43;;;;;;;5.65;2.08;;;;;;;23.28;54.18;100748.78;2093927;28;20044;-73
2022/07/14 02:23:07;;;;;;;9.07;2.20;;;;;;;23.27;54.16;100753.31;2102144;28;20502;-73
2022/07/14 02:24:28;;;;;;;7.07;1.80;;;;;;;23.27;54.05;100757.81;2102502;28;20048;-73
2022/07/14 02:25:51;;;;;;;6.32;2.00;;;;;;;23.26;54.18;100756.94;2093572;28;20479;-73
2022/07/14 02:27:14;;;;;;;7.85;2.50;;;;;;;23.26;54.33;100753.34;2099743;28;20146;-73
2022/07/14 02:28:38;;;;;;;5.10;2.00;;;;;;;23.25;54.39;100749.78;2102489;28;20056;-73
2022/07/14 02:30:00;;;;;;;5.28;1.70;;;;;;;23.24;54.38;100753.41;2102222;28;20071;-73
2022/07/14 02:31:22;;;;;;;9.75;1.98;;;;;;;23.24;54.59;100757.91;2102583;28;20060;-72
2022/07/14 02:32:44;;;;;;;7.63;1.98;;;;;;;23.24;54.73;100753.41;2105126;28;20127;-73
2022/07/14 02:34:07;;;;;;;5.72;2.05;;;;;;;23.24;54.67;100755.22;2096086;28;20050;-72
2022/07/14 02:35:30;;;;;;;7.28;2.60;;;;;;;23.23;54.77;100761.56;2091436;28;20383;-73
2022/07/14 02:36:53;;;;;;;9.45;2.22;;;;;;;23.23;54.81;100746.28;2100162;28;20082;-73
2022/07/14 02:38:16;;;;;;;8.32;2.10;;;;;;;23.24;54.69;100757.91;2102039;28;20148;-73
2022/07/14 02:39:41;;;;;;;7.53;1.90;;;;;;;23.23;54.73;100745.41;2094429;28;20060;-73
2022/07/14 02:41:04;;;;;;;7.43;1.80;;;;;;;23.23;54.71;100756.19;2091530;28;20068;-73
2022/07/14 02:42:27;;;;;;;3.47;1.63;;;;;;;23.23;54.69;100746.28;2093902;28;20068;-73
2022/07/14 02:43:49;;;;;;;6.68;2.10;;;;;;;23.23;54.81;100756.19;2102317;28;20044;-73
2022/07/14 02:45:13;;;;;;;7.20;2.38;;;;;;;23.24;54.71;100757.91;2094069;28;20048;-73
2022/07/14 02:46:34;;;;;;;6.13;2.10;;;;;;;23.23;54.62;100757.06;2091157;28;20545;-73
2022/07/14 02:47:57;;;;;;;6.90;1.90;;;;;;;23.22;54.81;100749.91;2102222;28;20488;-73
2022/07/14 02:49:20;;;;;;;11.32;2.10;;;;;;;23.21;54.79;100749.94;2102305;28;20043;-72
2022/07/14 02:50:42;;;;;;;8.52;2.10;;;;;;;23.20;54.84;100745.50;2099715;28;20063;-73
2022/07/14 02:52:06;;;;;;;5.68;1.98;;;;;;;23.20;55.08;100750.88;2094478;28;20041;-74
2022/07/14 02:53:30;;;;;;;8.05;2.08;;;;;;;23.19;54.98;100757.19;2100060;28;20048;-73
2022/07/14 02:54:52;;;;;;;8.88;2.70;;;;;;;23.18;55.10;100748.25;2096260;28;20130;-74
2022/07/14 02:56:18;;;;;;;5.93;1.92;;;;;;;23.18;55.19;100752.75;2110861;28;20080;-73
2022/07/14 02:57:41;;;;;;;7.25;2.17;;;;;;;23.18;55.09;100744.66;2099037;28;20041;-74
2022/07/14 02:59:07;;;;;;;6.65;2.10;;;;;;;23.19;55.41;100749.13;2099613;28;20044;-74
2022/07/14 03:00:30;;;;;;;8.55;2.05;;;;;;;23.19;55.42;100751.81;2102508;28;20095;-73
2022/07/14 03:01:53;;;;;;;8.20;2.03;;;;;;;23.19;55.26;100750.00;2094197;28;20052;-73
2022/07/14 03:03:17;;;;;;;7.15;2.22;;;;;;;23.21;55.38;100752.66;2100018;28;20044;-73
2022/07/14 03:04:40;;;;;;;8.18;1.98;;;;;;;23.21;55.49;100752.66;2093912;28;20045;-73
2022/07/14 03:06:10;;;;;;;7.45;2.38;;;;;;;23.21;55.59;100748.13;2091390;28;20046;-74
2022/07/14 03:07:31;;;;;;;6.38;2.13;;;;;;;23.20;55.62;100753.56;2101297;28;20044;-73
2022/07/14 03:08:55;;;;;;;6.07;2.47;;;;;;;23.20;55.60;100745.50;2110488;28;20404;-74
2022/07/14 03:10:18;;;;;;;6.05;1.85;;;;;;;23.20;55.55;100751.75;2096141;28;20067;-73
2022/07/14 03:11:40;;;;;;;9.23;2.22;;;;;;;23.20;55.64;100751.75;2101982;28;20080;-73
2022/07/14 03:13:02;;;;;;;8.85;2.17;;;;;;;23.21;55.77;100758.03;2093866;28;20573;-74
2022/07/14 03:14:25;;;;;;;8.85;2.88;;;;;;;23.21;55.66;100752.66;2099283;28;20055;-74
2022/07/14 03:15:46;;;;;;;6.65;3.13;;;;;;;23.18;55.76;100753.63;2093676;28;20075;-73
2022/07/14 03:17:09;;;;;;;5.32;1.92;;;;;;;23.18;55.83;100758.13;2101945;28;20097;-73
2022/07/14 03:18:31;;;;;;;7.03;2.08;;;;;;;23.19;55.84;100755.38;2098831;28;20053;-73
2022/07/14 03:19:53;;;;;;;6.55;2.38;;;;;;;23.19;55.74;100750.00;2102129;28;20044;-74
2022/07/14 03:21:16;;;;;;;4.30;2.22;;;;;;;23.20;55.66;100748.19;2095421;28;20091;-73
2022/07/14 03:22:42;;;;;;;6.32;2.70;;;;;;;23.20;55.80;100756.25;2093799;28;20144;-73
2022/07/14 03:24:13;;;;;;;9.95;2.65;;;;;;;23.19;55.64;100750.00;2094134;28;20060;-72
2022/07/14 03:25:34;;;;;;;4.88;1.83;;;;;;;23.22;55.97;100747.22;2101349;28;20056;-73
2022/07/14 03:26:57;;;;;;;7.13;1.90;;;;;;;23.24;55.87;100750.69;2103428;28;20048;-73
2022/07/14 03:28:18;;;;;;;5.47;1.90;;;;;;;23.27;55.87;100753.31;2095111;28;20383;-73
2022/07/14 03:29:41;;;;;;;8.98;2.40;;;;;;;23.31;55.71;100746.84;2100847;28;20155;-73
2022/07/14 03:31:03;;;;;;;6.35;2.20;;;;;;;23.37;55.84;100743.03;2086898;28;20049;-73
2022/07/14 03:32:26;;;;;;;8.77;2.17;;;;;;;23.42;55.76;100747.34;2100699;28;20515;-73
2022/07/14 03:33:49;;;;;;;6.20;2.25;;;;;;;23.47;55.75;100741.81;2095405;28;20045;-72
2022/07/14 03:35:11;;;;;;;6.97;1.80;;;;;;;23.54;55.65;100745.16;2101498;28;20056;-73
2022/07/14 03:36:36;;;;;;;3.03;1.95;;;;;;;23.60;55.57;100732.31;2095231;28;20044;-73
2022/07/14 03:37:57;;;;;;;7.78;2.17;;;;;;;23.66;55.40;100741.97;2092568;28;20114;-73
2022/07/14 03:39:22;;;;;;;3.95;1.45;;;;;;;23.72;55.27;100726.44;2100786;28;20048;-73
2022/07/14 03:40:45;;;;;;;5.65;1.85;;;;;;;23.80;55.30;100732.44;2097739;28;20695;-73
2022/07/14 03:42:07;;;;;;;6.50;2.00;;;;;;;23.89;55.23;100744.69;2101399;28;20032;-73
2022/07/14 03:43:30;;;;;;;9.27;2.30;;;;;;;23.96;55.00;100739.91;2103554;28;20044;-73
2022/07/14 03:44:55;;;;;;;8.60;2.13;;;;;;;24.04;54.79;100740.47;2095228;28;20569;-73
2022/07/14 03:46:17;;;;;;;;;;;;;;;24.10;54.78;100745.63;2095905;28;20525;-73
2022/07/14 03:47:49;;;;;;;8.95;1.95;;;;;;;24.20;54.84;100745.22;2096366;28;19974;-73
2022/07/14 03:49:12;;;;;;;8.15;2.20;;;;;;;24.31;54.58;100744.78;2092827;28;20044;-73
2022/07/14 03:50:34;;;;;;;10.30;2.17;;;;;;;24.40;54.13;100738.13;2092779;28;20390;-73
2022/07/14 03:51:57;;;;;;;3.40;1.58;;;;;;;24.46;54.26;100741.44;2101543;28;20044;-74
2022/07/14 03:53:20;;;;;;;5.82;1.67;;;;;;;24.56;54.02;100739.22;2095226;28;20500;-72
2022/07/14 03:54:44;;;;;;;6.53;3.33;;;;;;;24.67;53.77;100747.75;2093109;28;20075;-74
2022/07/14 03:56:08;;;;;;;5.82;2.17;;;;;;;24.75;53.61;100744.72;2092962;28;20203;-73
2022/07/14 03:57:37;;;;;;;5.40;2.10;;;;;;;24.84;53.73;100747.91;2094787;28;20052;-74
2022/07/14 03:59:00;;;;;;;8.82;2.08;;;;;;;24.94;53.32;100748.44;2092152;28;20080;-73
2022/07/14 04:00:23;;;;;;;5.57;1.77;;;;;;;25.03;53.11;100750.69;2092392;28;20075;-73
2022/07/14 04:01:46;;;;;;;4.07;1.80;;;;;;;25.10;53.26;100749.50;2095307;28;20056;-73
2022/07/14 04:03:09;;;;;;;4.93;1.88;;;;;;;25.17;53.06;100742.88;2092238;28;20067;-73
2022/07/14 04:04:31;;;;;;;6.70;1.75;;;;;;;25.24;52.85;100743.47;2092766;28;20067;-74
2022/07/14 04:05:53;;;;;;;3.80;1.95;;;;;;;25.34;52.85;100745.66;2100428;28;20050;-73
2022/07/14 04:07:15;;;;;;;7.40;1.63;;;;;;;25.46;52.60;100751.47;2095227;28;20044;-73
2022/07/14 04:08:38;;;;;;;5.57;1.42;;;;;;;25.55;52.36;100746.50;2094721;28;20041;-73
2022/07/14 04:10:02;;;;;;;7.85;1.88;;;;;;;25.65;51.99;100741.59;2095003;28;20040;-74
2022/07/14 04:11:25;;;;;;;5.75;1.60;;;;;;;25.71;51.74;100741.31;2095407;28;20048;-73
2022/07/14 04:12:50;;;;;;;6.55;1.40;;;;;;;25.79;51.47;100737.31;2094575;28;20044;-73
2022/07/14 04:14:12;;;;;;;7.28;1.98;;;;;;;25.89;51.21;100745.84;2093100;28;20229;-73
2022/07/14 04:15:34;;;;;;;9.02;2.22;;;;;;;25.97;51.00;100743.66;2092330;28;20079;-73
2022/07/14 04:16:56;;;;;;;5.90;2.10;;;;;;;26.10;50.74;100731.28;2092309;28;20044;-73
2022/07/14 04:18:19;;;;;;;4.25;1.38;;;;;;;26.21;50.48;100738.84;2092238;28;20529;-73
2022/07/14 04:19:42;;;;;;;4.78;1.65;;;;;;;26.32;50.20;100735.66;2092416;28;20087;-73
2022/07/14 04:21:04;;;;;;;5.45;1.60;;;;;;;26.40;50.06;100730.72;2092153;28;20048;-73
2022/07/14 04:22:28;;;;;;;8.65;1.73;;;;;;;26.52;49.96;100735.50;2092574;28;20056;-73
2022/07/14 04:23:50;;;;;;;6.95;1.45;;;;;;;26.64;49.82;100736.75;2092134;28;20052;-72
2022/07/14 04:25:14;;;;;;;5.95;1.50;;;;;;;26.80;49.26;100732.28;2099950;28;20097;-73
2022/07/14 04:26:37;;;;;;;4.20;1.45;;;;;;;26.95;49.21;100732.41;2094366;28;20048;-73
2022/07/14 04:27:59;;;;;;;7.32;2.00;;;;;;;27.13;49.06;100735.06;2092076;28;20049;-74
2022/07/14 04:29:21;;;;;;;6.43;1.55;;;;;;;27.26;48.79;100733.47;2100029;28;20068;-73
2022/07/14 04:30:44;;;;;;;7.40;1.67;;;;;;;27.41;48.52;100729.94;2094308;28;20137;-73
2022/07/14 04:32:07;;;;;;;9.52;1.65;;;;;;;27.57;48.13;100733.56;2100482;28;20032;-73
2022/07/14 04:33:30;;;;;;;6.53;2.17;;;;;;;27.71;47.71;100728.25;2094069;28;20072;-73
2022/07/14 04:34:52;;;;;;;3.42;1.65;;;;;;;27.86;47.49;100731.94;2091877;28;20055;-73
2022/07/14 04:36:14;;;;;;;4.82;1.60;;;;;;;28.08;47.04;100734.31;2091990;28;20144;-73
2022/07/14 04:37:38;;;;;;;3.90;1.30;;;;;;;28.21;46.55;100735.41;2091537;28;20045;-74
2022/07/14 04:39:07;;;;;;;4.90;1.33;;;;;;;28.33;46.28;100734.69;2095611;28;20064;-73
2022/07/14 04:40:32;;;;;;;6.10;1.58;;;;;;;28.43;45.96;100733.16;2091767;28;20528;-74
2022/07/14 04:41:55;;;;;;;9.25;1.60;;;;;;;28.57;45.59;100734.19;2092122;28;20096;-72
2022/07/14 04:43:18;;;;;;;5.15;1.65;;;;;;;28.63;45.20;100718.41;2091603;28;20067;-72
2022/07/14 04:44:42;;;;;;;7.78;2.10;;;;;;;28.75;44.97;100733.16;2092551;28;20049;-72
2022/07/14 04:46:05;;;;;;;6.10;1.70;;;;;;;28.90;44.52;100738.50;2091770;28;20036;-72
2022/07/14 04:47:31;;;;;;;9.75;1.70;;;;;;;29.09;44.41;100729.22;2093970;28;20048;-72
2022/07/14 04:52:17;;;;;;;6.40;1.67;;;;;;;29.67;42.93;100735.50;2096520;28;20055;-72
2022/07/14 04:53:44;;;;;;;7.53;1.55;;;;;;;29.81;42.62;100737.34;2093214;28;20411;-73
2022/07/14 04:55:38;;;;;;;2.22;1.08;;;;;;;29.98;42.41;100734.44;2098689;28;20064;-73
2022/07/14 04:57:27;;;;;;;5.22;1.50;;;;;;;30.16;41.83;100729.63;2105277;28;20047;-73
2022/07/14 04:58:48;;;;;;;10.45;1.58;;;;;;;30.30;41.61;100732.31;2094149;28;20044;-73
2022/07/14 05:00:13;;;;;;;6.03;1.50;;;;;;;30.41;40.93;100723.41;2091737;28;20076;-73
2022/07/14 05:01:34;;;;;;;5.35;1.50;;;;;;;30.38;40.90;100726.34;2091582;28;20097;-73
2022/07/14 05:02:57;;;;;;;2.42;1.10;;;;;;;30.43;40.54;100718.72;2096666;28;20090;-73
2022/07/14 05:04:19;;;;;;;6.85;1.70;;;;;;;30.49;40.36;100724.66;2094068;28;20049;-73
2022/07/14 05:05:42;;;;;;;8.13;1.50;;;;;;;30.65;39.97;100721.78;2091688;28;20041;-73
2022/07/14 05:07:05;;;;;;;6.20;1.30;;;;;;;30.77;39.58;100712.75;2091380;28;20336;-73
2022/07/14 05:08:27;;;;;;;5.70;1.42;;;;;;;30.91;39.12;100719.97;2091498;28;20545;-73
2022/07/14 05:09:50;;;;;;;6.18;1.38;;;;;;;31.00;38.83;100719.31;2091637;28;20147;-73
2022/07/14 05:11:13;;;;;;;4.95;1.75;;;;;;;31.10;38.27;100711.41;2091275;28;20048;-73
2022/07/14 05:12:37;;;;;;;8.43;1.40;;;;;;;31.16;38.21;100719.16;2091617;28;20518;-73
2022/07/14 05:13:58;;;;;;;4.30;1.60;;;;;;;31.33;38.11;100720.69;2091729;28;20068;-73
2022/07/14 05:15:21;;;;;;;3.15;1.42;;;;;;;31.39;37.78;100717.50;2093800;28;20062;-72
2022/07/14 05:16:45;;;;;;;5.45;1.30;;;;;;;31.50;37.73;100723.97;2091981;28;20463;-74
2022/07/14 05:18:07;;;;;;;6.63;1.23;;;;;;;31.62;37.55;100717.63;2102346;28;20043;-73
2022/07/14 05:19:29;;;;;;;2.55;1.27;;;;;;;31.73;37.17;100721.44;2093888;28;20048;-72
2022/07/14 05:20:54;;;;;;;7.75;1.60;;;;;;;31.88;36.92;100721.19;2091860;28;20544;-73
2022/07/14 05:22:17;;;;;;;6.38;1.80;;;;;;;32.11;36.86;100722.19;2091638;28;20144;-72
2022/07/14 05:23:40;;;;;;;6.47;1.35;;;;;;;32.30;36.62;100719.84;2053488;28;1388446;-73
2022/07/14 05:25:05;;;;;;;5.10;1.60;;;;;;;32.45;36.10;100728.75;2097185;28;20044;-73
2022/07/14 05:26:28;;;;;;;7.80;1.73;;;;;;;32.61;35.93;100725.75;2092722;28;20041;-74
2022/07/14 05:27:51;;;;;;;6.28;1.52;;;;;;;32.78;35.80;100733.53;2100029;28;20076;-72
2022/07/14 05:29:26;;;;;;;7.57;1.40;;;;;;;32.92;35.71;100730.59;2095958;28;20131;-73
2022/07/14 05:30:48;;;;;;;6.00;1.50;;;;;;;33.02;35.06;100725.25;2094355;28;20486;-73
2022/07/14 05:32:10;;;;;;;3.05;1.30;;;;;;;32.99;35.04;100731.00;2099658;28;20094;-73
2022/07/14 05:33:34;;;;;;;5.25;1.52;;;;;;;32.93;34.80;100724.16;2094672;28;20045;-73
2022/07/14 05:34:58;;;;;;;8.77;2.45;;;;;;;33.01;34.55;100727.16;2091634;28;20141;-74
2022/07/14 05:36:21;;;;;;;8.25;1.30;;;;;;;32.95;34.62;100727.59;2092189;28;20052;-73
2022/07/14 05:37:44;;;;;;;5.47;1.30;;;;;;;32.94;34.42;100725.03;2094310;28;20051;-74
2022/07/14 05:39:07;;;;;;;5.80;1.50;;;;;;;33.01;34.25;100720.81;2091925;28;20052;-73
2022/07/14 05:40:29;;;;;;;4.35;1.63;;;;;;;33.00;33.82;100725.41;2086124;28;20645;-73
2022/07/14 05:41:54;;;;;;;4.75;1.23;;;;;;;33.11;33.69;100732.75;2089160;28;20490;-73
2022/07/14 05:43:15;;;;;;;6.80;1.58;;;;;;;33.21;33.68;100734.66;2091062;28;20102;-73
2022/07/14 05:44:38;;;;;;;;;;;;;;;33.15;33.52;100729.66;2094689;28;20041;-73
2022/07/14 05:46:05;;;;;;;6.18;1.70;;;;;;;33.25;33.71;100724.38;2091691;28;19920;-73
2022/07/14 05:47:28;;;;;;;5.07;1.23;;;;;;;33.30;33.53;100735.81;2100381;28;20044;-73
2022/07/14 05:48:51;;;;;;;5.82;1.58;;;;;;;33.44;33.58;100726.50;2094287;28;20048;-73
2022/07/14 05:50:14;;;;;;;8.60;1.27;;;;;;;33.66;33.20;100734.72;2100538;28;20067;-73
2022/07/14 05:51:37;;;;;;;4.53;1.30;;;;;;;33.81;32.84;100724.41;2097960;28;20094;-73
2022/07/14 05:52:58;;;;;;;3.60;1.40;;;;;;;33.79;32.41;100727.28;2102379;28;20040;-73
2022/07/14 05:54:21;;;;;;;11.23;1.25;;;;;;;33.69;32.49;100734.47;2108151;28;20051;-73
2022/07/14 05:55:46;;;;;;;6.07;1.63;;;;;;;33.47;32.71;100727.13;2105265;28;20052;-74
2022/07/14 05:57:10;;;;;;;5.28;1.63;;;;;;;33.39;32.85;100721.41;2100407;28;20040;-73
2022/07/14 05:58:33;;;;;;;4.07;1.17;;;;;;;33.50;32.87;100728.75;2095939;28;20053;-73
2022/07/14 05:59:56;;;;;;;7.13;1.50;;;;;;;33.65;32.74;100723.91;2096634;28;20040;-73
2022/07/14 06:01:20;;;;;;;7.18;2.03;;;;;;;33.80;32.47;100731.78;2093435;28;20047;-73
2022/07/14 06:02:41;;;;;;;7.57;1.30;;;;;;;33.88;32.40;100726.50;2091977;28;20143;-73
2022/07/14 06:04:06;;;;;;;4.57;1.30;;;;;;;34.06;31.98;100723.28;2100097;28;20498;-74
2022/07/14 06:05:28;;;;;;;4.80;1.35;;;;;;;34.03;31.61;100731.72;2101761;28;20055;-73
2022/07/14 06:06:51;;;;;;;10.07;1.83;;;;;;;33.84;31.82;100725.03;2094079;28;20517;-74
2022/07/14 06:08:14;;;;;;;8.25;1.30;;;;;;;33.78;31.97;100724.66;2099297;28;20067;-73
2022/07/14 06:09:38;;;;;;;7.32;1.58;;;;;;;33.46;32.17;100719.03;2094101;28;20057;-74
2022/07/14 06:11:02;;;;;;;4.93;1.92;;;;;;;33.35;32.30;100725.34;2091665;28;20047;-74
2022/07/14 06:12:27;;;;;;;6.25;1.58;;;;;;;33.48;32.16;100726.13;2099566;28;20044;-73
2022/07/14 06:13:49;;;;;;;5.63;1.35;;;;;;;33.58;31.99;100727.13;2093736;28;20048;-74
2022/07/14 06:15:13;;;;;;;4.13;1.08;;;;;;;33.64;31.59;100725.75;2093937;28;20086;-73
2022/07/14 06:16:35;;;;;;;3.97;1.20;;;;;;;33.59;31.66;100711.56;2104150;27;20097;-74
2022/07/14 06:17:57;;;;;;;8.05;1.48;;;;;;;33.45;32.11;100714.56;2118166;27;20067;-73
2022/07/14 06:19:19;;;;;;;;;;;;;;;33.25;32.42;100718.88;2110847;28;20051;-73
2022/07/14 06:20:42;;;;;;;;;;;;;;;33.10;32.79;100722.81;2110672;28;19919;-74
2022/07/14 06:22:04;;;;;;;4.70;1.20;;;;;;;33.36;32.76;100712.53;2102059;28;19924;-73
2022/07/14 06:23:27;;;;;;;;;;;;;;;33.56;31.73;100723.63;2094092;28;20052;-73
2022/07/14 06:24:49;;;;;;;4.10;1.17;;;;;;;33.43;32.08;100724.75;2099756;28;20441;-73
2022/07/14 06:26:17;;;;;;;5.03;1.15;;;;;;;33.00;32.77;100727.28;2093874;28;20045;-73
2022/07/14 06:27:43;;;;;;;8.85;1.48;;;;;;;33.06;32.60;100729.53;2099859;28;20044;-73
2022/07/14 06:29:07;;;;;;;11.18;1.80;;;;;;;33.26;32.40;100714.28;2093614;28;20044;-73
2022/07/14 06:30:30;;;;;;;7.38;1.83;;;;;;;33.54;32.28;100725.63;2092801;28;20390;-73
2022/07/14 06:31:55;;;;;;;5.75;1.30;;;;;;;33.75;31.64;100714.81;2101327;28;20079;-74
2022/07/14 06:33:19;;;;;;;4.28;1.17;;;;;;;33.76;31.98;100718.44;2096031;28;20139;-73
2022/07/14 06:34:42;;;;;;;5.90;1.20;;;;;;;33.65;31.97;100719.28;2099429;28;20492;-73
2022/07/14 06:36:11;;;;;;;4.18;1.55;;;;;;;33.66;31.71;100706.47;2096451;28;20052;-73
2022/07/14 06:37:34;;;;;;;6.10;1.70;;;;;;;33.62;31.73;100705.84;2110647;28;20528;-73